Time;durP1;ratioP1;P1;durP2;ratioP2;P2;SDS_P1;SDS_P2;PMS_P1;PMS_P2;Temp;Humidity;BMP_temperature;BMP_pressure;BME280_temperature;BME280_humidity;BME280_pressure;Samples;Min_cycle;Max_cycle;Signal;HPM_P1;HPM_P2
2021/11/23 00:00:19;;;;;;;15.83;10.43;;;5.70;92.20;;;;;;5053103;28;20169;-82
2021/11/23 00:02:45;;;;;;;15.53;10.60;;;5.70;90.80;;;;;;5054145;28;20197;-81
2021/11/23 00:05:12;;;;;;;15.53;10.50;;;5.60;90.70;;;;;;5054373;28;20204;-82
2021/11/23 00:07:38;;;;;;;22.17;11.67;;;5.60;91.30;;;;;;5054518;28;20172;-82
2021/11/23 00:10:06;;;;;;;14.63;10.03;;;5.70;91.60;;;;;;5054527;28;20173;-82
2021/11/23 00:12:32;;;;;;;14.50;10.60;;;5.50;91.20;;;;;;5053812;28;20692;-81
2021/11/23 00:14:57;;;;;;;16.00;9.70;;;5.60;91.20;;;;;;5054066;28;20629;-81
2021/11/23 00:17:26;;;;;;;13.33;9.90;;;5.60;91.00;;;;;;5053208;28;20181;-82
2021/11/23 00:19:51;;;;;;;15.90;9.43;;;5.60;91.20;;;;;;5053339;28;20173;-82
2021/11/23 00:22:17;;;;;;;13.60;8.20;;;5.70;91.00;;;;;;5053652;28;20180;-82
2021/11/23 00:24:43;;;;;;;10.60;8.00;;;5.60;90.40;;;;;;5067880;28;20188;-81
2021/11/23 00:27:09;;;;;;;14.30;8.93;;;5.60;90.50;;;;;;5074165;28;20161;-82
2021/11/23 00:29:38;;;;;;;14.23;9.20;;;5.60;90.60;;;;;;5075370;28;20653;-81
2021/11/23 00:32:06;;;;;;;12.03;8.87;;;5.80;90.70;;;;;;5063925;28;20200;-82
2021/11/23 00:34:32;;;;;;;13.40;8.60;;;5.90;89.50;;;;;;5052826;28;20173;-81
2021/11/23 00:36:59;;;;;;;13.57;8.50;;;5.90;86.10;;;;;;5054079;28;20176;-83
2021/11/23 00:39:25;;;;;;;13.17;8.73;;;5.80;85.50;;;;;;5055753;28;20200;-82
2021/11/23 00:41:51;;;;;;;11.90;8.90;;;5.80;86.50;;;;;;5054208;28;20212;-82
2021/11/23 00:44:19;;;;;;;14.43;9.13;;;5.80;86.50;;;;;;5053673;28;20172;-81
2021/11/23 00:46:45;;;;;;;12.20;9.20;;;5.80;87.70;;;;;;5053726;28;20172;-82
2021/11/23 00:49:13;;;;;;;14.50;9.00;;;5.90;87.20;;;;;;5054899;28;20192;-81
2021/11/23 00:51:39;;;;;;;13.07;8.93;;;5.90;86.20;;;;;;5053279;28;20313;-82
2021/11/23 00:54:05;;;;;;;10.60;8.90;;;5.90;82.90;;;;;;5052809;28;20169;-81
2021/11/23 00:56:32;;;;;;;13.53;9.87;;;5.80;82.80;;;;;;5053331;28;20187;-82
2021/11/23 00:58:57;;;;;;;12.90;9.37;;;5.80;84.90;;;;;;5060358;28;20169;-81
2021/11/23 01:01:23;;;;;;;15.60;10.03;;;5.80;87.90;;;;;;5067260;28;20219;-82
2021/11/23 01:03:49;;;;;;;13.57;9.03;;;6.00;87.10;;;;;;5071946;28;20195;-80
2021/11/23 01:06:16;;;;;;;14.67;8.37;;;5.80;86.40;;;;;;5062732;28;20661;-82
2021/11/23 01:08:45;;;;;;;12.97;8.70;;;5.40;86.50;;;;;;5053568;28;20181;-81
2021/11/23 01:11:13;;;;;;;12.50;8.80;;;5.20;90.70;;;;;;5070757;28;20206;-82
2021/11/23 01:13:39;;;;;;;15.00;8.77;;;5.10;92.30;;;;;;5069853;28;20176;-82
2021/11/23 01:16:06;;;;;;;12.57;8.77;;;5.10;92.70;;;;;;5064002;28;20225;-81
2021/11/23 01:18:33;;;;;;;14.43;9.33;;;5.20;92.40;;;;;;5070469;28;20169;-79
2021/11/23 01:21:04;;;;;;;13.00;9.10;;;5.20;92.20;;;;;;5058665;28;20568;-81
2021/11/23 01:23:30;;;;;;;14.93;9.47;;;5.20;92.30;;;;;;5053426;28;20655;-81
2021/11/23 01:25:56;;;;;;;13.33;8.87;;;5.30;92.30;;;;;;5051991;28;20169;-82
2021/11/23 01:28:23;;;;;;;11.90;8.93;;;5.40;91.60;;;;;;5052040;28;20203;-81
2021/11/23 01:30:50;;;;;;;13.43;8.90;;;5.40;91.80;;;;;;5057128;28;20164;-82
2021/11/23 01:33:17;;;;;;;11.50;8.43;;;5.30;91.60;;;;;;5057058;28;20177;-80
2021/11/23 01:35:46;;;;;;;15.73;9.87;;;5.30;91.80;;;;;;5056079;28;20165;-81
2021/11/23 01:38:13;;;;;;;11.03;9.30;;;5.30;92.50;;;;;;5056142;28;20234;-82
2021/11/23 01:40:43;;;;;;;13.07;8.20;;;5.30;92.30;;;;;;5056811;28;20161;-80
2021/11/23 01:43:09;;;;;;;12.07;8.33;;;5.00;92.80;;;;;;5055643;28;20514;-81
2021/11/23 01:45:37;;;;;;;15.83;8.63;;;5.00;93.40;;;;;;5057072;28;20173;-82
2021/11/23 01:48:04;;;;;;;15.10;9.37;;;4.90;93.90;;;;;;5055381;28;20246;-82
2021/11/23 01:50:31;;;;;;;11.70;9.00;;;5.00;94.10;;;;;;5055650;28;20181;-82
2021/11/23 01:52:57;;;;;;;11.53;8.97;;;5.10;94.30;;;;;;5056797;28;20201;-82
2021/11/23 01:55:24;;;;;;;13.10;9.07;;;5.10;93.50;;;;;;5055331;28;20173;-80
2021/11/23 01:57:50;;;;;;;13.10;9.40;;;5.20;93.40;;;;;;5055086;28;20179;-81
2021/11/23 02:00:15;;;;;;;13.43;9.90;;;5.40;93.10;;;;;;5055360;28;20173;-83
2021/11/23 02:02:46;;;;;;;12.37;8.97;;;5.40;92.60;;;;;;5057960;28;20199;-82
2021/11/23 02:05:13;;;;;;;13.93;9.53;;;5.60;92.40;;;;;;5055656;28;20173;-82
2021/11/23 02:07:40;;;;;;;14.77;10.20;;;5.70;91.90;;;;;;5056439;28;20679;-82
2021/11/23 02:10:08;;;;;;;12.40;8.80;;;5.70;90.60;;;;;;5055532;28;20271;-82
2021/11/23 02:12:35;;;;;;;14.13;9.80;;;5.60;90.00;;;;;;5054807;28;20208;-82
2021/11/23 02:15:01;;;;;;;14.53;9.20;;;5.60;90.50;;;;;;5056250;28;20208;-82
2021/11/23 02:17:27;;;;;;;14.03;9.93;;;5.60;90.40;;;;;;5056923;28;20208;-82
2021/11/23 02:19:52;;;;;;;13.10;10.00;;;5.50;90.60;;;;;;5056561;28;20193;-82
2021/11/23 02:22:19;;;;;;;15.00;9.83;;;5.40;91.30;;;;;;5056286;28;20177;-82
2021/11/23 02:24:45;;;;;;;13.13;9.57;;;5.30;92.00;;;;;;5055892;28;20192;-81
2021/11/23 02:27:11;;;;;;;13.10;8.77;;;5.40;92.50;;;;;;5057263;28;20173;-81
2021/11/23 02:29:38;;;;;;;13.00;9.50;;;5.40;92.50;;;;;;5057756;28;20188;-80
2021/11/23 02:32:04;;;;;;;13.97;10.40;;;5.40;92.40;;;;;;5058032;28;20672;-80
2021/11/23 02:34:30;;;;;;;13.00;9.43;;;5.40;92.40;;;;;;5058997;28;20484;-82
2021/11/23 02:36:57;;;;;;;13.93;10.40;;;5.40;92.50;;;;;;5055709;28;20684;-82
2021/11/23 02:39:23;;;;;;;14.03;9.83;;;5.30;92.80;;;;;;5054554;28;20180;-82
2021/11/23 02:41:49;;;;;;;12.40;9.23;;;5.20;92.70;;;;;;5054667;28;20172;-82
2021/11/23 02:44:14;;;;;;;16.83;10.20;;;5.30;93.20;;;;;;5054572;28;20196;-82
2021/11/23 02:46:41;;;;;;;12.80;10.37;;;5.20;93.20;;;;;;5054876;28;20181;-82
2021/11/23 02:49:06;;;;;;;13.67;10.00;;;5.10;93.30;;;;;;5055894;28;20195;-81
2021/11/23 02:51:34;;;;;;;13.07;9.00;;;5.10;93.90;;;;;;5054776;28;20237;-82
2021/11/23 02:54:00;;;;;;;14.70;9.47;;;5.20;94.30;;;;;;5056560;28;20176;-81
2021/11/23 02:56:27;;;;;;;12.77;9.70;;;5.20;94.40;;;;;;5054985;28;20187;-81
2021/11/23 02:58:53;;;;;;;14.47;10.00;;;5.30;94.00;;;;;;5055531;28;20173;-82
2021/11/23 03:01:21;;;;;;;14.50;10.80;;;5.50;93.70;;;;;;5056033;28;20196;-83
2021/11/23 03:03:48;;;;;;;12.23;10.30;;;5.60;93.30;;;;;;5055467;28;20564;-81
2021/11/23 03:06:17;;;;;;;14.30;10.00;;;5.80;92.20;;;;;;5068770;28;20169;-82
2021/11/23 03:08:44;;;;;;;12.87;10.20;;;5.90;90.70;;;;;;5070526;28;20181;-83
2021/11/23 03:11:10;;;;;;;14.27;9.83;;;5.90;89.00;;;;;;5071883;28;20220;-81
2021/11/23 03:13:36;;;;;;;14.53;10.43;;;5.80;88.50;;;;;;5071726;28;20180;-82
2021/11/23 03:16:02;;;;;;;14.23;10.20;;;5.70;86.30;;;;;;5068830;28;20193;-82
2021/11/23 03:18:28;;;;;;;14.43;10.23;;;5.80;82.20;;;;;;5058040;28;20173;-81
2021/11/23 03:20:54;;;;;;;14.60;9.93;;;5.40;76.60;;;;;;5054158;28;20176;-82
2021/11/23 03:23:21;;;;;;;14.57;9.20;;;5.20;80.20;;;;;;5053662;28;20173;-81
2021/11/23 03:25:47;;;;;;;14.43;9.43;;;4.90;81.80;;;;;;5054146;28;20547;-81
2021/11/23 03:28:14;;;;;;;14.53;9.80;;;4.80;81.80;;;;;;5054111;28;20186;-82
2021/11/23 03:30:41;;;;;;;17.60;10.17;;;4.50;82.30;;;;;;5054301;28;20266;-81
2021/11/23 03:33:08;;;;;;;13.40;9.63;;;4.30;85.90;;;;;;5054004;28;20285;-81
2021/11/23 03:35:37;;;;;;;12.33;9.33;;;4.00;90.30;;;;;;5054275;28;20209;-84
2021/11/23 03:38:04;;;;;;;12.43;9.17;;;3.90;91.60;;;;;;5054766;28;20184;-82
2021/11/23 03:40:31;;;;;;;13.53;9.77;;;3.70;92.40;;;;;;5056242;28;20165;-81
2021/11/23 03:42:58;;;;;;;13.70;9.37;;;3.70;93.10;;;;;;5054907;28;20240;-80
2021/11/23 03:45:24;;;;;;;15.17;10.03;;;3.80;93.90;;;;;;5060210;28;20177;-80
2021/11/23 03:47:50;;;;;;;16.40;9.60;;;3.80;94.00;;;;;;5060431;28;20177;-80
2021/11/23 03:50:17;;;;;;;18.00;10.50;;;3.90;94.10;;;;;;5065201;28;20172;-81
2021/11/23 03:52:44;;;;;;;16.70;10.57;;;4.10;93.90;;;;;;5067431;28;20201;-80
2021/11/23 03:55:15;;;;;;;17.80;10.23;;;4.20;93.60;;;;;;5068830;28;20173;-80
2021/11/23 03:57:42;;;;;;;15.40;10.93;;;4.30;93.10;;;;;;5067585;28;20173;-81
2021/11/23 04:00:13;;;;;;;15.40;11.20;;;4.50;92.70;;;;;;5064551;28;20165;-82
2021/11/23 04:02:45;;;;;;;16.13;10.70;;;4.50;91.90;;;;;;5065450;28;20231;-81
2021/11/23 04:05:12;;;;;;;15.20;11.57;;;4.60;91.20;;;;;;5061142;28;20239;-83
2021/11/23 04:07:40;;;;;;;12.87;9.57;;;4.70;90.60;;;;;;5053618;28;20637;-83
2021/11/23 04:10:11;;;;;;;18.47;10.30;;;4.70;90.10;;;;;;5053487;28;20218;-82
2021/11/23 04:12:39;;;;;;;12.13;10.30;;;4.80;88.40;;;;;;5053133;28;20648;-81
2021/11/23 04:15:07;;;;;;;13.77;10.43;;;4.90;86.50;;;;;;5053229;28;20181;-82
2021/11/23 04:17:35;;;;;;;16.27;10.23;;;4.90;84.30;;;;;;5054813;28;20251;-80
2021/11/23 04:20:01;;;;;;;13.97;10.53;;;5.00;83.20;;;;;;5058413;28;20175;-80
2021/11/23 04:22:27;;;;;;;13.43;10.27;;;4.90;81.70;;;;;;5063197;28;20195;-82
2021/11/23 04:24:53;;;;;;;13.77;9.80;;;5.00;81.30;;;;;;5052252;28;20637;-81
2021/11/23 04:27:20;;;;;;;15.07;10.00;;;5.00;80.20;;;;;;5052948;28;20180;-82
2021/11/23 04:29:45;;;;;;;14.40;10.63;;;5.10;78.90;;;;;;5052665;28;20169;-83
2021/11/23 04:32:11;;;;;;;14.13;9.73;;;5.00;77.20;;;;;;5053202;28;20684;-83
2021/11/23 04:34:37;;;;;;;13.13;10.03;;;5.30;77.20;;;;;;5053880;28;20549;-81
2021/11/23 04:37:03;;;;;;;14.50;10.03;;;5.10;75.70;;;;;;5053142;28;20680;-83
2021/11/23 04:39:28;;;;;;;12.13;9.77;;;5.00;74.90;;;;;;5053921;28;20172;-82
2021/11/23 04:41:54;;;;;;;14.47;9.67;;;5.00;75.00;;;;;;5053603;28;20632;-82
2021/11/23 04:44:20;;;;;;;12.97;10.00;;;5.10;74.90;;;;;;5053610;28;20181;-83
2021/11/23 04:46:47;;;;;;;12.93;9.17;;;5.00;72.90;;;;;;5052684;28;20227;-81
2021/11/23 04:49:12;;;;;;;12.53;9.83;;;4.80;74.20;;;;;;5053851;28;20172;-81
2021/11/23 04:51:38;;;;;;;12.50;9.37;;;4.60;78.00;;;;;;5054487;28;20213;-83
2021/11/23 04:54:05;;;;;;;13.27;9.33;;;4.60;80.20;;;;;;5037259;28;20181;-82
2021/11/23 04:56:30;;;;;;;14.43;10.10;;;4.60;82.90;;;;;;5053894;28;20189;-81
2021/11/23 04:58:56;;;;;;;12.90;10.00;;;4.60;83.10;;;;;;5052048;28;20656;-81
2021/11/23 05:01:22;;;;;;;13.40;10.53;;;4.60;80.80;;;;;;5054214;28;20189;-81
2021/11/23 05:03:48;;;;;;;15.90;10.77;;;4.70;80.50;;;;;;5054194;28;20279;-81
2021/11/23 05:06:15;;;;;;;13.50;10.43;;;4.70;79.20;;;;;;5054785;28;20653;-81
2021/11/23 05:08:41;;;;;;;12.57;9.60;;;4.60;79.20;;;;;;5056055;28;20169;-82
2021/11/23 05:11:09;;;;;;;12.43;9.83;;;4.60;80.90;;;;;;5055035;28;20169;-80
2021/11/23 05:13:35;;;;;;;11.70;9.47;;;4.50;81.10;;;;;;5055268;28;20625;-81
2021/11/23 05:16:00;;;;;;;12.70;9.93;;;4.40;82.00;;;;;;5053738;28;20242;-82
2021/11/23 05:18:26;;;;;;;15.17;10.33;;;4.40;82.60;;;;;;5054760;28;20180;-82
2021/11/23 05:20:52;;;;;;;15.90;9.90;;;4.50;83.20;;;;;;5054062;28;20210;-81
2021/11/23 05:23:18;;;;;;;15.90;10.97;;;4.70;81.10;;;;;;5053551;28;20226;-83
2021/11/23 05:25:43;;;;;;;14.30;11.20;;;4.70;75.90;;;;;;5052229;28;20177;-81
2021/11/23 05:28:09;;;;;;;16.77;10.33;;;4.90;66.50;;;;;;5051985;28;20674;-81
2021/11/23 05:30:35;;;;;;;15.50;10.70;;;4.80;64.50;;;;;;5051814;28;20298;-82
2021/11/23 05:33:01;;;;;;;14.80;10.77;;;4.70;69.10;;;;;;5052527;28;20220;-83
2021/11/23 05:35:26;;;;;;;18.50;11.03;;;4.60;74.70;;;;;;5052028;28;20201;-82
2021/11/23 05:37:52;;;;;;;16.53;11.77;;;4.70;79.30;;;;;;5052010;28;20264;-83
2021/11/23 05:40:18;;;;;;;15.40;10.80;;;4.60;82.10;;;;;;5051892;28;20270;-83
2021/11/23 05:42:44;;;;;;;17.90;11.10;;;4.50;83.10;;;;;;5052097;28;20177;-82
2021/11/23 05:45:12;;;;;;;12.53;10.23;;;4.50;85.00;;;;;;5052746;28;20169;-83
2021/11/23 05:47:38;;;;;;;17.43;10.43;;;4.60;85.90;;;;;;5052603;28;20234;-83
2021/11/23 05:50:05;;;;;;;16.27;10.53;;;4.50;85.40;;;;;;5053313;28;20173;-82
2021/11/23 05:52:31;;;;;;;15.60;10.63;;;4.40;87.40;;;;;;5065430;28;20220;-81
2021/11/23 05:54:58;;;;;;;15.33;10.37;;;4.20;88.50;;;;;;5068795;28;20174;-82
2021/11/23 05:57:23;;;;;;;15.67;10.37;;;4.10;89.60;;;;;;5064087;28;20263;-82
2021/11/23 05:59:49;;;;;;;14.53;10.40;;;4.10;90.40;;;;;;5052764;28;20200;-83
2021/11/23 06:02:15;;;;;;;19.43;11.00;;;4.10;90.70;;;;;;5053511;28;20687;-82
2021/11/23 06:04:40;;;;;;;17.23;11.17;;;4.40;88.30;;;;;;5052255;28;20173;-82
2021/11/23 06:07:06;;;;;;;18.63;11.07;;;4.10;86.40;;;;;;5059614;28;20169;-81
2021/11/23 06:09:32;;;;;;;15.40;11.70;;;4.10;86.60;;;;;;5053462;28;20173;-80
2021/11/23 06:11:58;;;;;;;16.90;11.37;;;4.00;89.00;;;;;;5055798;28;20205;-81
2021/11/23 06:14:24;;;;;;;16.03;11.50;;;4.00;90.30;;;;;;5058608;28;20644;-82
2021/11/23 06:16:50;;;;;;;26.50;12.90;;;4.00;90.90;;;;;;5053926;28;20165;-82
2021/11/23 06:19:15;;;;;;;17.90;11.60;;;4.20;90.20;;;;;;5056448;28;20165;-83
2021/11/23 06:21:42;;;;;;;17.97;12.07;;;4.20;88.50;;;;;;5055807;28;20177;-81
2021/11/23 06:24:08;;;;;;;18.90;12.30;;;4.20;90.30;;;;;;5061368;28;20177;-81
2021/11/23 06:26:35;;;;;;;17.07;11.23;;;4.20;90.50;;;;;;5068866;28;20158;-80
2021/11/23 06:29:01;;;;;;;15.20;11.10;;;4.20;90.10;;;;;;5072450;28;20177;-80
2021/11/23 06:31:27;;;;;;;16.80;10.93;;;4.30;90.70;;;;;;5074354;28;20232;-82
2021/11/23 06:33:55;;;;;;;19.13;12.00;;;4.50;90.10;;;;;;5075862;28;20251;-82
2021/11/23 06:36:24;;;;;;;20.73;12.67;;;4.60;84.30;;;;;;5069670;28;20188;-82
2021/11/23 06:38:52;;;;;;;16.07;11.47;;;4.70;81.30;;;;;;5068162;28;20240;-81
2021/11/23 06:41:19;;;;;;;17.23;11.73;;;4.60;84.40;;;;;;5056469;28;20177;-82
2021/11/23 06:43:45;;;;;;;18.03;11.40;;;4.40;88.10;;;;;;5054957;28;20222;-81
2021/11/23 06:46:11;;;;;;;14.87;11.33;;;4.50;90.00;;;;;;5056943;28;20520;-83
2021/11/23 06:48:37;;;;;;;17.70;12.70;;;4.70;88.80;;;;;;5050426;28;20188;-82
2021/11/23 06:51:03;;;;;;;16.50;10.67;;;4.70;87.10;;;;;;5053009;28;20169;-82
2021/11/23 06:53:30;;;;;;;17.87;11.67;;;4.70;87.40;;;;;;5061310;28;20177;-83
2021/11/23 06:55:55;;;;;;;15.30;11.43;;;4.80;87.50;;;;;;5060479;28;20177;-81
2021/11/23 06:58:21;;;;;;;14.90;11.53;;;4.80;87.10;;;;;;5061163;28;20177;-82
2021/11/23 07:00:47;;;;;;;16.63;11.90;;;5.00;85.50;;;;;;5061967;28;20578;-82
2021/11/23 07:03:13;;;;;;;17.53;13.20;;;4.80;85.20;;;;;;5054580;28;20209;-81
2021/11/23 07:05:39;;;;;;;21.00;13.03;;;5.00;85.60;;;;;;5056955;28;20173;-82
2021/11/23 07:08:05;;;;;;;14.50;11.83;;;5.00;84.30;;;;;;5072192;28;20188;-83
2021/11/23 07:10:31;;;;;;;15.93;11.10;;;5.00;81.80;;;;;;5073974;28;20177;-82
2021/11/23 07:12:57;;;;;;;18.33;11.00;;;5.10;80.90;;;;;;5079230;28;20573;-81
2021/11/23 07:15:22;;;;;;;14.87;10.97;;;5.10;80.40;;;;;;5068631;28;20174;-81
2021/11/23 07:17:48;;;;;;;16.23;10.87;;;5.20;78.90;;;;;;5062578;28;20268;-82
2021/11/23 07:20:14;;;;;;;19.37;11.53;;;5.30;77.30;;;;;;5054112;28;20204;-83
2021/11/23 07:22:39;;;;;;;13.73;11.33;;;5.40;75.30;;;;;;5051813;28;20199;-83
2021/11/23 07:25:05;;;;;;;16.73;11.20;;;5.40;74.10;;;;;;5056042;28;20249;-82
2021/11/23 07:27:31;;;;;;;13.67;10.80;;;5.40;73.90;;;;;;5061019;28;20192;-82
2021/11/23 07:29:57;;;;;;;18.70;12.47;;;5.30;72.60;;;;;;5053292;28;20176;-84
2021/11/23 07:32:22;;;;;;;21.23;12.97;;;5.40;73.10;;;;;;5054718;28;20209;-82
2021/11/23 07:34:49;;;;;;;18.10;11.00;;;5.40;72.50;;;;;;5054305;28;20180;-83
2021/11/23 07:37:16;;;;;;;16.10;11.00;;;5.40;69.10;;;;;;5054146;28;20192;-82
2021/11/23 07:39:43;;;;;;;18.33;10.97;;;5.30;68.80;;;;;;5054225;28;20181;-83
2021/11/23 07:42:09;;;;;;;16.60;10.90;;;5.30;73.10;;;;;;5053253;28;20207;-83
2021/11/23 07:44:35;;;;;;;21.47;12.23;;;5.30;75.90;;;;;;5052611;28;20235;-83
2021/11/23 07:47:01;;;;;;;16.17;11.20;;;5.40;77.20;;;;;;5052609;28;20189;-82
2021/11/23 07:49:26;;;;;;;21.07;11.90;;;5.40;73.40;;;;;;5046653;28;20180;-82
2021/11/23 07:51:52;;;;;;;17.53;12.90;;;5.40;75.30;;;;;;5053172;28;20213;-82
2021/11/23 07:54:18;;;;;;;23.60;12.53;;;5.30;76.20;;;;;;5054720;28;20188;-84
2021/11/23 07:56:43;;;;;;;18.13;12.63;;;5.30;77.70;;;;;;5042756;28;20660;-80
2021/11/23 07:59:10;;;;;;;16.30;12.10;;;5.50;76.70;;;;;;5034659;28;20181;-83
2021/11/23 08:01:38;;;;;;;19.37;12.77;;;5.50;71.60;;;;;;5033751;28;20654;-83
2021/11/23 08:04:04;;;;;;;20.73;13.77;;;5.60;72.30;;;;;;5045187;28;20200;-82
2021/11/23 08:06:30;;;;;;;36.73;17.87;;;5.60;66.90;;;;;;5052419;28;20570;-82
2021/11/23 08:08:56;;;;;;;27.53;18.90;;;5.60;65.70;;;;;;5052555;28;20246;-83
2021/11/23 08:11:21;;;;;;;29.50;20.77;;;5.40;67.70;;;;;;5053818;28;20187;-81
2021/11/23 08:13:48;;;;;;;26.73;22.13;;;5.10;76.20;;;;;;5052359;28;20227;-83
2021/11/23 08:16:14;;;;;;;26.67;20.87;;;5.10;82.90;;;;;;5056611;28;20294;-81
2021/11/23 08:18:39;;;;;;;29.67;20.33;;;5.10;86.10;;;;;;5053191;28;20184;-82
2021/11/23 08:21:05;;;;;;;33.33;20.33;;;5.20;85.90;;;;;;5052526;28;20588;-83
2021/11/23 08:23:31;;;;;;;23.70;17.00;;;5.10;85.00;;;;;;5053291;28;20197;-83
2021/11/23 08:25:57;;;;;;;24.23;16.20;;;5.10;86.00;;;;;;5053252;28;20527;-81
2021/11/23 08:28:26;;;;;;;22.53;14.47;;;5.00;87.30;;;;;;5052656;28;20583;-82
2021/11/23 08:30:55;;;;;;;24.37;13.93;;;5.00;88.50;;;;;;5058014;28;20173;-82
2021/11/23 08:33:21;;;;;;;24.87;15.13;;;5.00;89.30;;;;;;5055303;28;20554;-80
2021/11/23 08:35:46;;;;;;;19.40;13.20;;;5.20;89.30;;;;;;5054123;28;20173;-82
2021/11/23 08:38:13;;;;;;;20.87;12.93;;;5.00;88.90;;;;;;5052787;28;20195;-83
2021/11/23 08:40:39;;;;;;;19.80;13.57;;;5.10;89.10;;;;;;5053298;28;20599;-82
2021/11/23 08:43:06;;;;;;;20.00;13.80;;;5.20;87.80;;;;;;5054516;28;20198;-82
2021/11/23 08:45:32;;;;;;;20.83;15.97;;;5.20;86.50;;;;;;5053239;28;20187;-82
2021/11/23 08:47:57;;;;;;;20.97;13.90;;;5.20;85.90;;;;;;5046159;28;20185;-82
2021/11/23 08:50:24;;;;;;;19.90;12.60;;;5.40;86.50;;;;;;5058238;28;20188;-81
2021/11/23 08:52:50;;;;;;;23.83;15.20;;;5.50;82.70;;;;;;5054548;28;20383;-82
2021/11/23 08:55:16;;;;;;;19.17;13.73;;;5.60;79.80;;;;;;5071442;28;20190;-82
2021/11/23 08:57:43;;;;;;;20.83;14.90;;;5.60;78.00;;;;;;5064803;28;20272;-83
2021/11/23 09:00:24;;;;;;;27.27;14.93;;;5.70;77.90;;;;;;5055608;28;20168;-82
2021/11/23 09:02:53;;;;;;;20.50;13.67;;;5.90;76.80;;;;;;5053623;28;20187;-82
2021/11/23 09:05:22;;;;;;;19.57;13.50;;;5.90;71.80;;;;;;5059113;28;20169;-83
2021/11/23 09:07:49;;;;;;;22.53;13.73;;;6.00;69.00;;;;;;5055693;28;20165;-82
2021/11/23 09:10:19;;;;;;;21.77;14.20;;;6.10;67.80;;;;;;5057201;28;20174;-82
2021/11/23 09:12:45;;;;;;;18.97;13.47;;;6.20;67.40;;;;;;5052893;28;20216;-83
2021/11/23 09:15:12;;;;;;;22.60;14.50;;;6.40;62.70;;;;;;5053746;28;20218;-83
2021/11/23 09:17:37;;;;;;;22.83;14.37;;;6.40;59.90;;;;;;5054352;28;20511;-81
2021/11/23 09:20:04;;;;;;;23.73;15.37;;;6.50;58.00;;;;;;5056703;28;20231;-82
2021/11/23 09:22:31;;;;;;;22.10;13.80;;;6.60;56.50;;;;;;5065096;28;20176;-80
2021/11/23 09:24:58;;;;;;;27.00;14.77;;;6.80;54.70;;;;;;5067071;28;20192;-82
2021/11/23 09:27:24;;;;;;;27.77;14.27;;;6.90;53.60;;;;;;5069031;28;20211;-81
2021/11/23 09:29:49;;;;;;;26.60;14.73;;;7.00;49.00;;;;;;5052744;28;20169;-80
2021/11/23 09:32:16;;;;;;;19.83;14.53;;;6.90;48.00;;;;;;5045144;28;20197;-82
2021/11/23 09:34:42;;;;;;;21.73;15.23;;;6.80;52.70;;;;;;5052251;28;20649;-83
2021/11/23 09:37:09;;;;;;;20.33;13.87;;;6.80;53.50;;;;;;5056992;28;20207;-82
2021/11/23 09:39:35;;;;;;;20.90;15.30;;;7.00;52.90;;;;;;5053266;28;20169;-83
2021/11/23 09:42:01;;;;;;;27.17;14.77;;;7.10;51.10;;;;;;5054040;28;20173;-82
2021/11/23 09:44:29;;;;;;;20.33;14.13;;;7.30;46.80;;;;;;5056978;28;20166;-83
2021/11/23 09:46:54;;;;;;;26.07;16.30;;;7.30;41.00;;;;;;5046953;28;20656;-82
2021/11/23 09:49:20;;;;;;;22.07;15.87;;;7.30;39.40;;;;;;5054630;28;20165;-82
2021/11/23 09:51:46;;;;;;;24.90;16.27;;;7.20;43.40;;;;;;5055058;28;20205;-82
2021/11/23 09:54:12;;;;;;;23.70;15.33;;;7.20;46.70;;;;;;5057800;28;20173;-82
2021/11/23 09:56:48;;;;;;;21.73;14.73;;;7.20;48.60;;;;;;5063419;28;20260;-83
2021/11/23 09:59:14;;;;;;;24.83;16.73;;;7.20;48.60;;;;;;5062325;28;20200;-81
2021/11/23 10:01:48;;;;;;;21.43;15.07;;;7.10;50.40;;;;;;5071206;28;20189;-80
2021/11/23 10:04:14;;;;;;;19.20;15.47;;;7.10;51.80;;;;;;5070610;28;20180;-83
2021/11/23 10:07:00;;;;;;;21.63;16.03;;;7.30;53.20;;;;;;5072256;28;20173;-83
2021/11/23 10:09:28;;;;;;;22.57;15.90;;;7.40;48.70;;;;;;5071146;28;20256;-82
2021/11/23 10:12:14;;;;;;;24.47;16.90;;;7.50;47.10;;;;;;5063592;28;20195;-82
2021/11/23 10:15:12;;;;;;;24.77;16.17;;;7.60;43.60;;;;;;5066541;28;20172;-83
2021/11/23 10:17:42;;;;;;;28.43;16.97;;;7.60;41.60;;;;;;5071079;28;20279;-82
2021/11/23 10:20:30;;;;;;;19.87;15.50;;;7.60;43.90;;;;;;5073742;28;20165;-84
2021/11/23 10:23:26;;;;;;;24.83;16.90;;;7.70;45.90;;;;;;5068160;28;20181;-82
2021/11/23 10:26:14;;;;;;;29.07;17.60;;;7.80;43.70;;;;;;5052830;28;20209;-84
2021/11/23 10:28:56;;;;;;;24.27;16.70;;;7.70;38.30;;;;;;5041785;28;20367;-82
2021/11/23 10:31:29;;;;;;;26.77;17.87;;;7.60;42.90;;;;;;5045387;28;20243;-82
2021/11/23 10:34:00;;;;;;;24.47;16.50;;;7.50;47.60;;;;;;5066537;28;20199;-82
2021/11/23 10:36:31;;;;;;;27.40;17.33;;;7.50;52.20;;;;;;5072561;28;20169;-82
2021/11/23 10:39:07;;;;;;;30.33;20.30;;;7.40;50.10;;;;;;5072235;28;20189;-83
2021/11/23 10:41:33;;;;;;;25.57;16.27;;;7.40;52.10;;;;;;5062110;28;20184;-82
2021/11/23 10:43:58;;;;;;;24.27;16.43;;;7.50;47.60;;;;;;5065435;28;20165;-83
2021/11/23 10:46:32;;;;;;;23.33;17.17;;;7.70;38.80;;;;;;5062300;28;20195;-84
2021/11/23 10:49:00;;;;;;;22.57;16.40;;;7.70;37.70;;;;;;5088141;28;20176;-84
2021/11/23 10:51:36;;;;;;;22.97;17.10;;;7.80;37.50;;;;;;5066911;28;20177;-81
2021/11/23 10:54:16;;;;;;;24.10;15.00;;;7.70;35.50;;;;;;5071604;28;20191;-82
2021/11/23 10:57:09;;;;;;;20.33;15.10;;;7.80;32.90;;;;;;5038653;28;20170;-82
2021/11/23 10:59:39;;;;;;;22.77;15.07;;;7.80;30.50;;;;;;5038702;28;20240;-83
2021/11/23 11:02:08;;;;;;;20.13;15.67;;;7.80;29.60;;;;;;5037378;28;20220;-83
2021/11/23 11:04:36;;;;;;;25.90;14.67;;;7.80;30.70;;;;;;5037519;28;20629;-84
2021/11/23 11:07:04;;;;;;;22.67;15.67;;;7.90;30.30;;;;;;5036198;28;20654;-81
2021/11/23 11:09:32;;;;;;;22.13;15.50;;;8.00;26.60;;;;;;5038322;28;20173;-85
2021/11/23 11:11:58;;;;;;;24.93;15.67;;;8.30;26.10;;;;;;5041063;28;20208;-85
2021/11/23 11:14:28;;;;;;;19.93;14.37;;;8.40;24.20;;;;;;5039343;28;20307;-84
2021/11/23 11:16:55;;;;;;;24.17;15.70;;;8.50;17.60;;;;;;5037177;28;20180;-84
2021/11/23 11:19:39;;;;;;;26.10;14.87;;;8.60;16.00;;;;;;5039057;28;20166;-83
2021/11/23 11:22:08;;;;;;;20.43;15.53;;;8.60;14.60;;;;;;5059828;28;20215;-82
2021/11/23 11:24:43;;;;;;;22.37;14.67;;;8.90;14.20;;;;;;5076410;28;20629;-84
2021/11/23 11:27:36;;;;;;;19.80;14.57;;;9.00;8.00;;;;;;5077850;28;20176;-83
2021/11/23 11:30:25;;;;;;;21.47;13.83;;;9.00;3.10;;;;;;5069461;28;20173;-85
2021/11/23 11:33:24;;;;;;;22.83;14.60;;;9.00;2.30;;;;;;5057457;28;20220;-84
2021/11/23 11:35:53;;;;;;;20.23;14.60;;;8.90;10.40;;;;;;5037774;28;20228;-83
2021/11/23 11:38:33;;;;;;;21.23;14.13;;;9.00;12.90;;;;;;5072599;28;20326;-82
2021/11/23 11:41:06;;;;;;;20.13;14.77;;;9.10;11.20;;;;;;5057309;28;20238;-83
2021/11/23 11:43:38;;;;;;;19.83;13.73;;;9.20;9.10;;;;;;5072226;28;20177;-86
2021/11/23 11:46:08;;;;;;;19.53;13.00;;;9.30;5.00;;;;;;5059932;28;20199;-82
2021/11/23 11:48:37;;;;;;;23.03;15.10;;;9.20;5.50;;;;;;5074628;28;20173;-83
2021/11/23 11:51:27;;;;;;;21.90;15.07;;;9.30;9.40;;;;;;5057058;28;20173;-83
2021/11/23 11:53:57;;;;;;;18.23;13.60;;;9.30;9.00;;;;;;5059982;28;20189;-84
2021/11/23 11:56:35;;;;;;;23.07;14.57;;;9.40;7.50;;;;;;5054518;28;20181;-81
2021/11/23 11:59:30;;;;;;;19.47;13.20;;;9.50;7.40;;;;;;5046555;28;20213;-85
2021/11/23 12:02:04;;;;;;;24.80;14.43;;;9.60;10.90;;;;;;5027451;28;20204;-85
2021/11/23 12:04:33;;;;;;;22.00;13.97;;;9.70;13.60;;;;;;5048489;28;20194;-85
2021/11/23 12:07:02;;;;;;;20.83;11.90;;;9.70;15.10;;;;;;5054515;28;20184;-84
2021/11/23 12:09:35;;;;;;;21.23;13.80;;;9.70;11.70;;;;;;5070816;28;20176;-85
2021/11/23 12:12:10;;;;;;;23.00;13.97;;;9.50;10.00;;;;;;5070962;28;20676;-85
2021/11/23 12:15:08;;;;;;;25.03;13.90;;;9.70;13.60;;;;;;5064404;28;20179;-85
2021/11/23 12:17:54;;;;;;;20.83;13.50;;;9.70;15.00;;;;;;5074088;28;20545;-84
2021/11/23 12:21:02;;;;;;;20.43;12.97;;;9.70;15.60;;;;;;5063459;28;20230;-84
2021/11/23 12:23:37;;;;;;;18.90;12.13;;;9.90;20.20;;;;;;5038937;28;20197;-86
2021/11/23 12:26:17;;;;;;;19.60;12.30;;;9.90;16.50;;;;;;5071658;28;20176;-85
2021/11/23 12:28:57;;;;;;;26.03;15.83;;;9.80;18.20;;;;;;5075515;28;20279;-85
2021/11/23 12:31:27;;;;;;;19.73;12.63;;;9.90;20.80;;;;;;5073912;28;20207;-84
2021/11/23 12:34:00;;;;;;;26.57;13.23;;;9.80;22.00;;;;;;5070983;28;20234;-84
2021/11/23 12:36:29;;;;;;;20.70;11.73;;;9.80;26.60;;;;;;5054172;28;20188;-83
2021/11/23 12:39:13;;;;;;;19.23;10.97;;;9.90;26.70;;;;;;5049353;28;20204;-85
2021/11/23 12:41:41;;;;;;;19.30;11.20;;;10.00;25.20;;;;;;5051046;28;20169;-84
2021/11/23 12:44:37;;;;;;;19.60;10.87;;;10.30;20.20;;;;;;5058089;28;20242;-85
2021/11/23 12:47:04;;;;;;;19.53;12.33;;;10.20;20.20;;;;;;5044647;28;20192;-84